createdAt,value
2019-02-05T00:00:33.487Z,1020.62
2019-02-05T00:01:34.078Z,1020.58
2019-02-05T00:02:33.510Z,1020.57
2019-02-05T00:03:33.524Z,1020.6
2019-02-05T00:05:33.548Z,1020.57
2019-02-05T00:06:33.558Z,1020.57
2019-02-05T00:07:33.570Z,1020.61
2019-02-05T00:08:33.582Z,1020.66
2019-02-05T00:09:33.593Z,1020.61
2019-02-05T00:10:33.606Z,1020.62
2019-02-05T00:11:33.617Z,1020.59
2019-02-05T00:12:33.630Z,1020.59
2019-02-05T00:13:33.641Z,1020.61
2019-02-05T00:14:33.652Z,1020.64
2019-02-05T00:15:33.666Z,1020.58
2019-02-05T00:16:33.678Z,1020.6
2019-02-05T00:17:33.689Z,1020.65
2019-02-05T00:18:33.702Z,1020.64
2019-02-05T00:19:33.714Z,1020.61
2019-02-05T00:21:33.736Z,1020.6
2019-02-05T00:22:33.749Z,1020.59
2019-02-05T00:23:33.760Z,1020.55
2019-02-05T00:24:33.771Z,1020.55
2019-02-05T00:25:33.784Z,1020.57
2019-02-05T00:26:33.798Z,1020.56
2019-02-05T00:27:33.808Z,1020.55
2019-02-05T00:28:33.819Z,1020.52
2019-02-05T00:29:33.831Z,1020.52
2019-02-05T00:30:33.843Z,1020.5
2019-02-05T00:31:33.854Z,1020.52
2019-02-05T00:32:33.866Z,1020.5
2019-02-05T00:33:33.879Z,1020.48
2019-02-05T00:34:33.890Z,1020.45
2019-02-05T00:35:33.901Z,1020.47
2019-02-05T00:37:33.926Z,1020.47
2019-02-05T00:38:33.939Z,1020.47
2019-02-05T00:39:33.949Z,1020.46
2019-02-05T00:40:33.961Z,1020.51
2019-02-05T00:41:33.973Z,1020.51
2019-02-05T00:42:33.984Z,1020.46
2019-02-05T00:43:33.996Z,1020.5
2019-02-05T00:44:34.009Z,1020.44
2019-02-05T00:45:34.020Z,1020.42
2019-02-05T00:46:34.031Z,1020.47
2019-02-05T00:47:34.043Z,1020.42
2019-02-05T00:48:34.059Z,1020.41
2019-02-05T00:49:34.070Z,1020.4
2019-02-05T00:50:34.087Z,1020.44
2019-02-05T00:52:34.104Z,1020.46
2019-02-05T00:53:34.115Z,1020.46
2019-02-05T00:54:34.127Z,1020.49
2019-02-05T00:55:34.139Z,1020.46
2019-02-05T00:56:34.152Z,1020.42
2019-02-05T00:57:34.163Z,1020.43
2019-02-05T00:58:34.175Z,1020.43
2019-02-05T00:59:34.187Z,1020.4
2019-02-05T01:00:34.198Z,1020.4
2019-02-05T01:01:34.213Z,1020.37
2019-02-05T01:02:34.222Z,1020.32
2019-02-05T01:03:34.234Z,1020.34
2019-02-05T01:04:34.245Z,1020.33
2019-02-05T01:05:34.257Z,1020.3
2019-02-05T01:06:34.270Z,1020.28
2019-02-05T01:07:34.282Z,1020.34
2019-02-05T01:08:34.293Z,1020.3
2019-02-05T01:09:34.305Z,1020.3
2019-02-05T01:10:34.319Z,1020.32
2019-02-05T01:11:34.330Z,1020.24
2019-02-05T01:12:34.340Z,1020.25
2019-02-05T01:13:34.353Z,1020.24
2019-02-05T01:14:34.365Z,1020.22
2019-02-05T01:15:34.376Z,1020.24
2019-02-05T01:16:34.388Z,1020.22
2019-02-05T01:17:34.400Z,1020.19
2019-02-05T01:18:34.412Z,1020.19
2019-02-05T01:19:34.424Z,1020.21
2019-02-05T01:20:34.435Z,1020.16
2019-02-05T01:21:34.448Z,1020.15
2019-02-05T01:22:34.459Z,1020.08
2019-02-05T01:24:34.483Z,1020.08
2019-02-05T01:25:34.496Z,1020.05
2019-02-05T01:26:34.508Z,1020.04
2019-02-05T01:27:34.521Z,1020.06
2019-02-05T01:28:34.531Z,1020.08
2019-02-05T01:29:34.542Z,1020.01
2019-02-05T01:30:34.554Z,1020.05
2019-02-05T01:31:34.566Z,1019.99
2019-02-05T01:32:34.579Z,1020
2019-02-05T01:33:34.590Z,1019.97
2019-02-05T01:34:34.601Z,1019.95
2019-02-05T01:35:34.614Z,1019.98
2019-02-05T01:36:34.626Z,1019.97
2019-02-05T01:37:34.637Z,1020.04
2019-02-05T01:38:34.650Z,1020.04
2019-02-05T01:40:34.674Z,1020.04
2019-02-05T01:41:34.685Z,1019.98
2019-02-05T01:42:34.697Z,1019.99
2019-02-05T01:43:34.709Z,1019.94
2019-02-05T01:44:34.720Z,1019.94
2019-02-05T01:45:34.732Z,1019.85
2019-02-05T01:46:34.745Z,1019.82
2019-02-05T01:47:34.757Z,1019.87
2019-02-05T01:48:34.768Z,1019.86
2019-02-05T01:49:34.782Z,1019.82
2019-02-05T01:50:34.892Z,1019.86
2019-02-05T01:51:34.804Z,1019.86
2019-02-05T01:52:34.815Z,1019.87
2019-02-05T01:53:34.827Z,1019.86
2019-02-05T01:54:34.840Z,1019.83
2019-02-05T01:56:40.533Z,1019.83
2019-02-05T01:57:34.876Z,1019.77
2019-02-05T01:58:34.888Z,1019.75
2019-02-05T01:59:34.899Z,1019.75
2019-02-05T02:00:34.913Z,1019.73
2019-02-05T02:01:35.023Z,1019.68
2019-02-05T02:02:34.935Z,1019.71
2019-02-05T02:03:34.947Z,1019.71
2019-02-05T02:04:34.959Z,1019.69
2019-02-05T02:05:34.972Z,1019.66
2019-02-05T02:06:34.982Z,1019.69
2019-02-05T02:07:34.994Z,1019.63
2019-02-05T02:08:35.006Z,1019.66
2019-02-05T02:09:35.018Z,1019.63
2019-02-05T02:10:35.030Z,1019.61
2019-02-05T02:12:35.054Z,1019.61
2019-02-05T02:13:35.066Z,1019.58
2019-02-05T02:14:35.077Z,1019.53
2019-02-05T02:15:35.090Z,1019.57
2019-02-05T02:16:35.102Z,1019.57
2019-02-05T02:17:35.113Z,1019.52
2019-02-05T02:18:35.127Z,1019.55
2019-02-05T02:19:35.138Z,1019.55
2019-02-05T02:20:35.151Z,1019.55
2019-02-05T02:21:35.161Z,1019.54
2019-02-05T02:22:35.174Z,1019.55
2019-02-05T02:23:35.186Z,1019.53
2019-02-05T02:24:35.199Z,1019.46
2019-02-05T02:25:35.218Z,1019.49
2019-02-05T02:27:35.287Z,1019.5
2019-02-05T02:28:35.257Z,1019.56
2019-02-05T02:29:35.258Z,1019.52
2019-02-05T02:30:35.279Z,1019.53
2019-02-05T02:31:35.283Z,1019.54
2019-02-05T02:32:35.297Z,1019.52
2019-02-05T02:33:35.307Z,1019.51
2019-02-05T02:34:35.319Z,1019.47
2019-02-05T02:35:35.329Z,1019.48
2019-02-05T02:36:35.343Z,1019.47
2019-02-05T02:37:35.361Z,1019.52
2019-02-05T02:38:35.368Z,1019.46
2019-02-05T02:39:35.378Z,1019.52
2019-02-05T02:40:35.391Z,1019.49
2019-02-05T02:41:35.402Z,1019.52
2019-02-05T02:42:35.415Z,1019.49
2019-02-05T02:43:35.439Z,1019.48
2019-02-05T02:44:35.441Z,1019.51
2019-02-05T02:45:35.451Z,1019.51
2019-02-05T02:46:35.464Z,1019.52
2019-02-05T02:47:35.475Z,1019.51
2019-02-05T02:48:35.494Z,1019.53
2019-02-05T02:49:35.500Z,1019.57
2019-02-05T02:50:35.511Z,1019.56
2019-02-05T02:51:35.529Z,1019.51
2019-02-05T02:52:35.534Z,1019.57
2019-02-05T02:53:35.547Z,1019.51
2019-02-05T02:54:35.561Z,1019.54
2019-02-05T02:55:35.572Z,1019.48
2019-02-05T02:56:35.583Z,1019.53
2019-02-05T02:57:35.595Z,1019.56
2019-02-05T02:59:35.619Z,1019.61
2019-02-05T03:00:35.632Z,1019.6
2019-02-05T03:01:35.644Z,1019.6
2019-02-05T03:02:35.655Z,1019.6
2019-02-05T03:03:35.668Z,1019.6
2019-02-05T03:04:35.680Z,1019.63
2019-02-05T03:05:35.693Z,1019.63
2019-02-05T03:06:35.704Z,1019.7
2019-02-05T03:07:35.716Z,1019.7
2019-02-05T03:08:35.727Z,1019.76
2019-02-05T03:09:35.739Z,1019.72
2019-02-05T03:10:35.751Z,1019.77
2019-02-05T03:11:35.764Z,1019.79
2019-02-05T03:12:35.777Z,1019.74
2019-02-05T03:13:35.787Z,1019.77
2019-02-05T03:15:35.812Z,1019.76
2019-02-05T03:16:35.823Z,1019.73
2019-02-05T03:17:35.837Z,1019.68
2019-02-05T03:18:35.848Z,1019.65
2019-02-05T03:19:35.860Z,1019.66
2019-02-05T03:20:35.872Z,1019.63
2019-02-05T03:21:35.884Z,1019.64
2019-02-05T03:22:35.897Z,1019.62
2019-02-05T03:23:35.909Z,1019.62
2019-02-05T03:24:35.989Z,1019.59
2019-02-05T03:25:35.933Z,1019.62
2019-02-05T03:26:35.956Z,1019.59
2019-02-05T03:27:35.956Z,1019.55
2019-02-05T03:28:35.970Z,1019.56
2019-02-05T03:29:35.981Z,1019.55
2019-02-05T03:31:36.012Z,1019.54
2019-02-05T03:32:36.023Z,1019.56
2019-02-05T03:33:36.031Z,1019.53
2019-02-05T03:34:36.042Z,1019.53
2019-02-05T03:35:36.054Z,1019.54
2019-02-05T03:36:36.067Z,1019.5
2019-02-05T03:37:36.080Z,1019.53
2019-02-05T03:38:36.092Z,1019.55
2019-02-05T03:39:36.104Z,1019.55
2019-02-05T03:40:36.123Z,1019.58
2019-02-05T03:41:36.129Z,1019.56
2019-02-05T03:42:36.144Z,1019.51
2019-02-05T03:43:36.153Z,1019.51
2019-02-05T03:44:36.164Z,1019.49
2019-02-05T03:45:36.176Z,1019.62
2019-02-05T03:47:36.201Z,1019.59
2019-02-05T03:48:36.213Z,1019.48
2019-02-05T03:49:36.225Z,1019.49
2019-02-05T03:50:36.353Z,1019.49
2019-02-05T03:51:36.254Z,1019.54
2019-02-05T03:52:36.261Z,1019.52
2019-02-05T03:53:36.274Z,1019.54
2019-02-05T03:54:36.286Z,1019.55
2019-02-05T03:55:36.299Z,1019.57
2019-02-05T03:56:36.310Z,1019.52
2019-02-05T03:57:36.324Z,1019.47
2019-02-05T03:58:36.337Z,1019.5
2019-02-05T03:59:36.349Z,1019.48
2019-02-05T04:00:36.361Z,1019.44
2019-02-05T04:02:36.387Z,1019.42
2019-02-05T04:03:36.397Z,1019.47
2019-02-05T04:04:36.410Z,1019.4
2019-02-05T04:05:36.424Z,1019.43
2019-02-05T04:06:36.435Z,1019.41
2019-02-05T04:07:36.447Z,1019.42
2019-02-05T04:08:36.459Z,1019.45
2019-02-05T04:09:36.483Z,1019.45
2019-02-05T04:10:36.483Z,1019.47
2019-02-05T04:11:36.495Z,1019.46
2019-02-05T04:12:36.508Z,1019.43
2019-02-05T04:13:36.521Z,1019.46
2019-02-05T04:14:36.542Z,1019.44
2019-02-05T04:15:36.545Z,1019.45
2019-02-05T04:16:36.557Z,1019.46
2019-02-05T04:17:36.570Z,1019.45
2019-02-05T04:18:36.582Z,1019.45
2019-02-05T04:19:36.594Z,1019.47
2019-02-05T04:20:36.606Z,1019.45
2019-02-05T04:21:36.618Z,1019.47
2019-02-05T04:22:36.633Z,1019.44
2019-02-05T04:23:36.643Z,1019.39
2019-02-05T04:24:36.657Z,1019.42
2019-02-05T04:25:36.667Z,1019.4
2019-02-05T04:26:36.680Z,1019.42
2019-02-05T04:27:43.897Z,1019.39
2019-02-05T04:28:36.707Z,1019.38
2019-02-05T04:29:36.717Z,1019.36
2019-02-05T04:30:36.730Z,1019.41
2019-02-05T04:31:36.742Z,1019.41
2019-02-05T04:32:36.754Z,1019.41
2019-02-05T04:34:36.780Z,1019.32
2019-02-05T04:35:36.791Z,1019.36
2019-02-05T04:36:36.803Z,1019.23
2019-02-05T04:37:36.816Z,1019.26
2019-02-05T04:38:36.830Z,1019.29
2019-02-05T04:39:36.841Z,1019.25
2019-02-05T04:40:36.853Z,1019.22
2019-02-05T04:41:36.867Z,1019.23
2019-02-05T04:42:36.880Z,1019.18
2019-02-05T04:43:36.890Z,1019.15
2019-02-05T04:44:36.902Z,1019.16
2019-02-05T04:45:36.915Z,1019.11
2019-02-05T04:46:36.927Z,1019.19
2019-02-05T04:47:36.940Z,1019.23
2019-02-05T04:48:36.952Z,1019.28
2019-02-05T04:50:36.978Z,1019.38
2019-02-05T04:51:36.988Z,1019.42
2019-02-05T04:52:37.002Z,1019.42
2019-02-05T04:53:37.013Z,1019.39
2019-02-05T04:54:37.027Z,1019.49
2019-02-05T04:55:37.038Z,1019.47
2019-02-05T04:56:37.062Z,1019.43
2019-02-05T04:57:37.063Z,1019.42
2019-02-05T04:58:37.074Z,1019.43
2019-02-05T04:59:37.187Z,1019.43
2019-02-05T05:00:37.100Z,1019.44
2019-02-05T05:01:37.112Z,1019.42
2019-02-05T05:02:37.124Z,1019.38
2019-02-05T05:03:37.136Z,1019.34
2019-02-05T05:04:37.149Z,1019.33
2019-02-05T05:06:37.173Z,1019.34
2019-02-05T05:07:37.185Z,1019.36
2019-02-05T05:08:37.199Z,1019.36
2019-02-05T05:09:37.209Z,1019.33
2019-02-05T05:10:37.222Z,1019.32
2019-02-05T05:11:37.234Z,1019.26
2019-02-05T05:12:37.248Z,1019.25
2019-02-05T05:13:37.258Z,1019.3
2019-02-05T05:14:37.270Z,1019.31
2019-02-05T05:15:37.283Z,1019.29
2019-02-05T05:16:37.396Z,1019.33
2019-02-05T05:17:37.306Z,1019.28
2019-02-05T05:18:37.319Z,1019.31
2019-02-05T05:19:37.334Z,1019.31
2019-02-05T05:20:37.343Z,1019.33
2019-02-05T05:22:37.369Z,1019.33
2019-02-05T05:23:37.386Z,1019.33
2019-02-05T05:24:37.396Z,1019.29
2019-02-05T05:25:37.405Z,1019.29
2019-02-05T05:26:37.417Z,1019.3
2019-02-05T05:27:37.436Z,1019.24
2019-02-05T05:28:37.444Z,1019.25
2019-02-05T05:29:37.453Z,1019.23
2019-02-05T05:30:37.561Z,1019.21
2019-02-05T05:31:37.477Z,1019.2
2019-02-05T05:32:37.491Z,1019.21
2019-02-05T05:33:37.507Z,1019.17
2019-02-05T05:34:37.515Z,1019.19
2019-02-05T05:35:41.787Z,1019.21
2019-02-05T05:37:37.552Z,1019.13
2019-02-05T05:38:37.564Z,1019.11
2019-02-05T05:39:37.578Z,1019.11
2019-02-05T05:40:37.589Z,1019.1
2019-02-05T05:41:37.602Z,1019.08
2019-02-05T05:42:37.614Z,1019.08
2019-02-05T05:43:37.625Z,1019.05
2019-02-05T05:44:37.640Z,1019.02
2019-02-05T05:45:37.648Z,1019.06
2019-02-05T05:46:37.662Z,1019.08
2019-02-05T05:47:37.673Z,1019.03
2019-02-05T05:48:37.686Z,1019.03
2019-02-05T05:49:37.697Z,1019.03
2019-02-05T05:50:37.718Z,1019.1
2019-02-05T05:51:37.721Z,1019.12
2019-02-05T05:52:37.734Z,1019.12
2019-02-05T05:53:37.746Z,1019.1
2019-02-05T05:54:37.758Z,1019.14
2019-02-05T05:55:37.846Z,1019.16
2019-02-05T05:56:37.782Z,1019.16
2019-02-05T05:57:37.794Z,1019.14
2019-02-05T05:58:37.806Z,1019.11
2019-02-05T05:59:37.822Z,1019.14
2019-02-05T06:00:37.830Z,1019.14
2019-02-05T06:01:37.842Z,1019.14
2019-02-05T06:02:39.889Z,1019.11
2019-02-05T06:03:37.869Z,1019.18
2019-02-05T06:04:37.879Z,1019.16
2019-02-05T06:05:37.892Z,1019.18
2019-02-05T06:06:37.908Z,1019.15
2019-02-05T06:07:37.915Z,1019.19
2019-02-05T06:09:37.941Z,1019.17
2019-02-05T06:10:37.953Z,1019.2
2019-02-05T06:11:37.964Z,1019.18
2019-02-05T06:12:37.979Z,1019.15
2019-02-05T06:13:37.989Z,1019.18
2019-02-05T06:14:38.007Z,1019.18
2019-02-05T06:15:38.013Z,1019.22
2019-02-05T06:16:38.027Z,1019.26
2019-02-05T06:17:38.039Z,1019.31
2019-02-05T06:18:38.051Z,1019.28
2019-02-05T06:19:38.061Z,1019.27
2019-02-05T06:20:38.074Z,1019.35
2019-02-05T06:21:38.087Z,1019.33
2019-02-05T06:22:38.100Z,1019.29
2019-02-05T06:23:38.111Z,1019.28
2019-02-05T06:25:38.136Z,1019.28
2019-02-05T06:26:38.147Z,1019.24
2019-02-05T06:27:38.160Z,1019.25
2019-02-05T06:28:38.173Z,1019.29
2019-02-05T06:29:38.186Z,1019.31
2019-02-05T06:30:38.302Z,1019.32
2019-02-05T06:31:38.209Z,1019.29
2019-02-05T06:32:38.221Z,1019.3
2019-02-05T06:33:38.233Z,1019.29
2019-02-05T06:34:38.248Z,1019.28
2019-02-05T06:35:38.262Z,1019.25
2019-02-05T06:36:38.270Z,1019.27
2019-02-05T06:37:38.282Z,1019.24
2019-02-05T06:38:38.295Z,1019.3
2019-02-05T06:39:38.308Z,1019.25
2019-02-05T06:41:38.330Z,1019.3
2019-02-05T06:42:38.343Z,1019.31
2019-02-05T06:43:38.355Z,1019.34
2019-02-05T06:44:38.366Z,1019.3
2019-02-05T06:45:41.251Z,1019.31
2019-02-05T06:46:38.392Z,1019.34
2019-02-05T06:47:38.407Z,1019.32
2019-02-05T06:48:38.416Z,1019.31
2019-02-05T06:49:38.428Z,1019.33
2019-02-05T06:50:38.441Z,1019.38
2019-02-05T06:51:38.453Z,1019.39
2019-02-05T06:52:38.466Z,1019.36
2019-02-05T06:53:38.477Z,1019.4
2019-02-05T06:54:38.490Z,1019.41
2019-02-05T06:55:38.502Z,1019.37
2019-02-05T06:57:38.527Z,1019.42
2019-02-05T06:58:45.897Z,1019.43
2019-02-05T06:59:38.550Z,1019.4
2019-02-05T07:00:38.563Z,1019.41
2019-02-05T07:01:38.576Z,1019.44
2019-02-05T07:02:38.587Z,1019.44
2019-02-05T07:03:38.599Z,1019.45
2019-02-05T07:04:38.613Z,1019.48
2019-02-05T07:05:38.625Z,1019.52
2019-02-05T07:06:38.636Z,1019.51
2019-02-05T07:07:38.649Z,1019.53
2019-02-05T07:08:38.661Z,1019.51
2019-02-05T07:09:38.673Z,1019.55
2019-02-05T07:10:38.688Z,1019.59
2019-02-05T07:12:38.711Z,1019.61
2019-02-05T07:13:38.723Z,1019.68
2019-02-05T07:14:38.746Z,1019.61
2019-02-05T07:15:38.748Z,1019.66
2019-02-05T07:16:38.761Z,1019.66
2019-02-05T07:17:49.157Z,1019.68
2019-02-05T07:18:38.785Z,1019.7
2019-02-05T07:19:38.797Z,1019.72
2019-02-05T07:20:38.812Z,1019.7
2019-02-05T07:21:38.822Z,1019.71
2019-02-05T07:22:38.834Z,1019.72
2019-02-05T07:23:38.847Z,1019.8
2019-02-05T07:24:38.859Z,1019.81
2019-02-05T07:25:38.871Z,1019.77
2019-02-05T07:26:38.884Z,1019.81
2019-02-05T07:27:38.897Z,1019.81
2019-02-05T07:28:38.915Z,1019.86
2019-02-05T07:29:38.924Z,1019.79
2019-02-05T07:30:38.933Z,1019.81
2019-02-05T07:31:38.945Z,1019.76
2019-02-05T07:32:38.958Z,1019.77
2019-02-05T07:33:38.971Z,1019.82
2019-02-05T07:34:38.983Z,1019.79
2019-02-05T07:35:38.995Z,1019.81
2019-02-05T07:36:39.009Z,1019.82
2019-02-05T07:37:39.021Z,1019.87
2019-02-05T07:38:39.066Z,1019.87
2019-02-05T07:39:39.044Z,1019.84
2019-02-05T07:40:39.059Z,1019.86
2019-02-05T07:41:39.071Z,1019.81
2019-02-05T07:42:39.081Z,1019.81
2019-02-05T07:44:40.035Z,1019.87
2019-02-05T07:45:39.119Z,1019.84
2019-02-05T07:46:39.131Z,1019.9
2019-02-05T07:47:39.143Z,1019.87
2019-02-05T07:48:39.156Z,1019.87
2019-02-05T07:49:39.170Z,1019.87
2019-02-05T07:50:39.181Z,1019.93
2019-02-05T07:51:39.194Z,1019.89
2019-02-05T07:52:39.206Z,1019.88
2019-02-05T07:53:39.219Z,1019.86
2019-02-05T07:54:39.232Z,1019.81
2019-02-05T07:55:39.247Z,1019.9
2019-02-05T07:56:39.256Z,1019.93
2019-02-05T07:57:39.340Z,1019.93
2019-02-05T07:58:39.378Z,1019.94
2019-02-05T08:00:39.307Z,1019.94
2019-02-05T08:01:39.320Z,1019.94
2019-02-05T08:02:39.332Z,1019.91
2019-02-05T08:03:39.345Z,1019.98
2019-02-05T08:04:39.356Z,1019.97
2019-02-05T08:05:39.369Z,1019.95
2019-02-05T08:06:39.382Z,1019.93
2019-02-05T08:07:39.395Z,1019.97
2019-02-05T08:08:39.406Z,1019.98
2019-02-05T08:09:39.419Z,1019.99
2019-02-05T08:10:39.432Z,1020.07
2019-02-05T08:11:41.303Z,1020.01
2019-02-05T08:12:39.459Z,1020
2019-02-05T08:13:39.470Z,1020.02
2019-02-05T08:14:39.483Z,1020.06
2019-02-05T08:16:39.509Z,1020.03
2019-02-05T08:17:39.523Z,1020.03
2019-02-05T08:18:39.536Z,1019.95
2019-02-05T08:19:39.546Z,1019.93
2019-02-05T08:20:39.559Z,1019.93
2019-02-05T08:21:39.572Z,1019.97
2019-02-05T08:22:39.585Z,1020.02
2019-02-05T08:23:39.598Z,1019.97
2019-02-05T08:24:39.610Z,1019.96
2019-02-05T08:25:39.623Z,1019.97
2019-02-05T08:26:39.636Z,1019.99
2019-02-05T08:27:39.648Z,1019.95
2019-02-05T08:28:41.111Z,1019.94
2019-02-05T08:29:39.675Z,1019.96
2019-02-05T08:30:39.690Z,1019.93
2019-02-05T08:32:39.712Z,1019.92
2019-02-05T08:33:39.727Z,1019.98
2019-02-05T08:34:39.738Z,1020.01
2019-02-05T08:35:39.751Z,1020
2019-02-05T08:36:39.764Z,1020
2019-02-05T08:37:39.782Z,1019.96
2019-02-05T08:38:39.789Z,1020.01
2019-02-05T08:39:39.803Z,1020.07
2019-02-05T08:40:39.819Z,1020.11
2019-02-05T08:41:39.832Z,1020.08
2019-02-05T08:42:39.841Z,1020.06
2019-02-05T08:43:39.855Z,1020.09
2019-02-05T08:44:39.868Z,1020.04
2019-02-05T08:45:39.881Z,1020.01
2019-02-05T08:47:39.908Z,1020.09
2019-02-05T08:48:39.920Z,1020.12
2019-02-05T08:49:39.934Z,1020.16
2019-02-05T08:50:39.948Z,1020.13
2019-02-05T08:51:39.960Z,1020.08
2019-02-05T08:52:39.973Z,1020.07
2019-02-05T08:53:39.986Z,1020.1
2019-02-05T08:54:39.999Z,1020.2
2019-02-05T08:55:40.012Z,1020.25
2019-02-05T08:56:40.025Z,1020.23
2019-02-05T08:57:40.039Z,1020.19
2019-02-05T08:58:40.052Z,1020.2
2019-02-05T08:59:40.064Z,1020.22
2019-02-05T09:00:40.078Z,1020.21
2019-02-05T09:01:40.091Z,1020.25
2019-02-05T09:02:40.104Z,1020.26
2019-02-05T09:03:40.117Z,1020.26
2019-02-05T09:04:40.131Z,1020.25
2019-02-05T09:05:40.143Z,1020.25
2019-02-05T09:06:40.155Z,1020.27
2019-02-05T09:07:40.169Z,1020.33
2019-02-05T09:08:40.182Z,1020.29
2019-02-05T09:09:40.195Z,1020.3
2019-02-05T09:10:40.208Z,1020.3
2019-02-05T09:11:40.220Z,1020.28
2019-02-05T09:12:40.234Z,1020.22
2019-02-05T09:13:40.247Z,1020.27
2019-02-05T09:14:40.260Z,1020.34
2019-02-05T09:15:40.274Z,1020.36
2019-02-05T09:16:40.288Z,1020.37
2019-02-05T09:17:40.299Z,1020.38
2019-02-05T09:19:40.325Z,1020.38
2019-02-05T09:20:40.341Z,1020.38
2019-02-05T09:21:40.351Z,1020.38
2019-02-05T09:22:40.364Z,1020.35
2019-02-05T09:23:40.378Z,1020.32
2019-02-05T09:24:40.391Z,1020.27
2019-02-05T09:25:40.403Z,1020.33
2019-02-05T09:26:40.417Z,1020.42
2019-02-05T09:27:40.430Z,1020.43
2019-02-05T09:28:40.443Z,1020.43
2019-02-05T09:29:40.457Z,1020.43
2019-02-05T09:30:40.470Z,1020.4
2019-02-05T09:31:40.486Z,1020.41
2019-02-05T09:32:40.495Z,1020.43
2019-02-05T09:33:40.509Z,1020.44
2019-02-05T09:35:40.535Z,1020.41
2019-02-05T09:36:40.548Z,1020.41
2019-02-05T09:37:40.564Z,1020.42
2019-02-05T09:38:40.575Z,1020.44
2019-02-05T09:39:40.589Z,1020.42
2019-02-05T09:40:40.603Z,1020.43
2019-02-05T09:41:40.615Z,1020.38
2019-02-05T09:42:40.628Z,1020.37
2019-02-05T09:43:40.643Z,1020.4
2019-02-05T09:44:40.654Z,1020.42
2019-02-05T09:45:40.670Z,1020.39
2019-02-05T09:46:40.681Z,1020.37
2019-02-05T09:47:40.694Z,1020.41
2019-02-05T09:48:40.707Z,1020.47
2019-02-05T09:49:40.721Z,1020.49
2019-02-05T09:51:40.747Z,1020.46
2019-02-05T09:52:40.762Z,1020.4
2019-02-05T09:53:40.774Z,1020.48
2019-02-05T09:54:40.787Z,1020.54
2019-02-05T09:55:40.802Z,1020.57
2019-02-05T09:56:40.815Z,1020.54
2019-02-05T09:57:40.830Z,1020.47
2019-02-05T09:58:40.842Z,1020.54
2019-02-05T09:59:45.292Z,1020.56
2019-02-05T10:00:40.869Z,1020.61
2019-02-05T10:01:40.882Z,1020.58
2019-02-05T10:02:40.898Z,1020.57
2019-02-05T10:03:40.912Z,1020.57
2019-02-05T10:04:40.923Z,1020.58
2019-02-05T10:05:40.937Z,1020.67
2019-02-05T10:07:40.968Z,1020.69
2019-02-05T10:08:40.977Z,1020.69
2019-02-05T10:09:40.990Z,1020.73
2019-02-05T10:10:41.004Z,1020.71
2019-02-05T10:11:41.017Z,1020.74
2019-02-05T10:12:41.030Z,1020.74
2019-02-05T10:13:41.044Z,1020.75
2019-02-05T10:14:41.058Z,1020.7
2019-02-05T10:15:41.077Z,1020.7
2019-02-05T10:16:41.085Z,1020.73
2019-02-05T10:17:41.099Z,1020.7
2019-02-05T10:18:41.114Z,1020.66
2019-02-05T10:19:41.127Z,1020.72
2019-02-05T10:20:41.141Z,1020.73
2019-02-05T10:22:41.169Z,1020.68
2019-02-05T10:23:41.182Z,1020.69
2019-02-05T10:24:41.196Z,1020.66
2019-02-05T10:25:41.210Z,1020.67
2019-02-05T10:26:41.224Z,1020.7
2019-02-05T10:27:41.237Z,1020.73
2019-02-05T10:28:41.250Z,1020.72
2019-02-05T10:29:41.264Z,1020.69
2019-02-05T10:30:41.277Z,1020.63
2019-02-05T10:31:41.291Z,1020.63
2019-02-05T10:32:41.305Z,1020.65
2019-02-05T10:33:41.319Z,1020.65
2019-02-05T10:34:41.332Z,1020.62
2019-02-05T10:35:41.347Z,1020.61
2019-02-05T10:36:41.360Z,1020.69
2019-02-05T10:37:41.374Z,1020.68
2019-02-05T10:38:41.387Z,1020.64
2019-02-05T10:39:41.401Z,1020.68
2019-02-05T10:40:41.415Z,1020.64
2019-02-05T10:41:41.428Z,1020.63
2019-02-05T10:42:44.005Z,1020.61
2019-02-05T10:43:41.456Z,1020.62
2019-02-05T10:44:41.472Z,1020.64
2019-02-05T10:45:41.484Z,1020.62
2019-02-05T10:46:41.497Z,1020.62
2019-02-05T10:47:41.513Z,1020.59
2019-02-05T10:48:41.526Z,1020.61
2019-02-05T10:49:41.540Z,1020.59
2019-02-05T10:50:41.554Z,1020.57
2019-02-05T10:51:41.567Z,1020.6
2019-02-05T10:52:41.580Z,1020.57
2019-02-05T10:54:41.609Z,1020.61
2019-02-05T10:55:41.627Z,1020.6
2019-02-05T10:56:41.636Z,1020.56
2019-02-05T10:57:41.650Z,1020.59
2019-02-05T10:58:41.664Z,1020.59
2019-02-05T10:59:41.678Z,1020.6
2019-02-05T11:00:41.694Z,1020.56
2019-02-05T11:01:41.706Z,1020.55
2019-02-05T11:02:41.720Z,1020.54
2019-02-05T11:03:41.733Z,1020.55
2019-02-05T11:04:41.749Z,1020.52
2019-02-05T11:05:41.761Z,1020.54
2019-02-05T11:06:41.776Z,1020.54
2019-02-05T11:07:41.789Z,1020.6
2019-02-05T11:08:41.804Z,1020.57
2019-02-05T11:10:41.832Z,1020.62
2019-02-05T11:11:41.845Z,1020.64
2019-02-05T11:12:41.860Z,1020.64
2019-02-05T11:13:41.874Z,1020.62
2019-02-05T11:14:41.887Z,1020.62
2019-02-05T11:15:41.902Z,1020.59
2019-02-05T11:16:41.916Z,1020.66
2019-02-05T11:17:41.930Z,1020.61
2019-02-05T11:18:41.943Z,1020.6
2019-02-05T11:19:41.958Z,1020.61
2019-02-05T11:20:41.973Z,1020.57
2019-02-05T11:21:41.986Z,1020.53
2019-02-05T11:22:41.999Z,1020.51
2019-02-05T11:23:42.015Z,1020.46
2019-02-05T11:24:42.028Z,1020.52
2019-02-05T11:26:42.055Z,1020.5
2019-02-05T11:27:42.070Z,1020.51
2019-02-05T11:28:42.094Z,1020.5
2019-02-05T11:29:42.097Z,1020.52
2019-02-05T11:30:42.111Z,1020.49
2019-02-05T11:31:42.126Z,1020.51
2019-02-05T11:32:42.140Z,1020.48
2019-02-05T11:33:42.155Z,1020.47
2019-02-05T11:34:42.168Z,1020.47
2019-02-05T11:35:42.183Z,1020.49
2019-02-05T11:36:42.197Z,1020.52
2019-02-05T11:37:42.210Z,1020.53
2019-02-05T11:38:42.224Z,1020.54
2019-02-05T11:39:42.240Z,1020.56
2019-02-05T11:40:42.252Z,1020.57
2019-02-05T11:42:42.281Z,1020.59
2019-02-05T11:43:42.295Z,1020.58
2019-02-05T11:44:42.309Z,1020.59
2019-02-05T11:45:42.323Z,1020.6
2019-02-05T11:46:42.337Z,1020.64
2019-02-05T11:47:42.351Z,1020.6
2019-02-05T11:48:42.366Z,1020.52
2019-02-05T11:49:42.393Z,1020.6
2019-02-05T11:50:42.394Z,1020.54
2019-02-05T11:51:42.407Z,1020.59
2019-02-05T11:52:42.422Z,1020.59
2019-02-05T11:53:42.436Z,1020.56
2019-02-05T11:54:42.451Z,1020.59
2019-02-05T11:55:42.466Z,1020.6
2019-02-05T11:57:42.495Z,1020.61
2019-02-05T11:58:42.508Z,1020.55
2019-02-05T11:59:42.522Z,1020.55
2019-02-05T12:00:42.537Z,1020.54
2019-02-05T12:01:42.551Z,1020.6
2019-02-05T12:02:42.565Z,1020.58
2019-02-05T12:03:42.579Z,1020.58
2019-02-05T12:04:42.596Z,1020.6
2019-02-05T12:05:42.608Z,1020.61
2019-02-05T12:06:42.622Z,1020.65
2019-02-05T12:07:42.636Z,1020.58
2019-02-05T12:08:42.655Z,1020.59
2019-02-05T12:09:42.664Z,1020.6
2019-02-05T12:10:42.679Z,1020.57
2019-02-05T12:11:42.693Z,1020.59
2019-02-05T12:12:42.708Z,1020.56
2019-02-05T12:13:42.722Z,1020.61
2019-02-05T12:14:42.736Z,1020.61
2019-02-05T12:15:42.753Z,1020.59
2019-02-05T12:16:42.765Z,1020.55
2019-02-05T12:17:42.779Z,1020.56
2019-02-05T12:18:42.794Z,1020.52
2019-02-05T12:19:42.909Z,1020.5
2019-02-05T12:20:42.822Z,1020.49
2019-02-05T12:21:42.841Z,1020.49
2019-02-05T12:22:42.854Z,1020.49
2019-02-05T12:23:42.872Z,1020.49
2019-02-05T12:24:42.880Z,1020.5
2019-02-05T12:25:42.895Z,1020.48
2019-02-05T12:26:42.909Z,1020.54
2019-02-05T12:27:42.923Z,1020.51
2019-02-05T12:29:42.952Z,1020.46
2019-02-05T12:30:45.244Z,1020.49
2019-02-05T12:31:42.981Z,1020.51
2019-02-05T12:32:42.995Z,1020.49
2019-02-05T12:33:43.011Z,1020.48
2019-02-05T12:34:43.025Z,1020.49
2019-02-05T12:35:43.038Z,1020.5
2019-02-05T12:36:43.053Z,1020.53
2019-02-05T12:37:43.068Z,1020.53
2019-02-05T12:38:43.081Z,1020.52
2019-02-05T12:39:43.197Z,1020.54
2019-02-05T12:40:43.113Z,1020.51
2019-02-05T12:41:43.130Z,1020.48
2019-02-05T12:42:43.140Z,1020.49
2019-02-05T12:43:43.154Z,1020.54
2019-02-05T12:45:43.183Z,1020.51
2019-02-05T12:46:43.197Z,1020.48
2019-02-05T12:47:43.214Z,1020.51
2019-02-05T12:48:43.227Z,1020.51
2019-02-05T12:49:43.241Z,1020.5